Time,TemperatureF,DewpointF,PressureIn,WindDirection,WindDirectionDegrees,WindSpeedMPH,WindSpeedGustMPH,Humidity,HourlyPrecipIn,Conditions,Clouds,dailyrainin,SoftwareType,DateUTC
2013-01-01 00:02:00,43.0,19.1,30.11,SE,132,0.0,0.0,38,0.00,,,0.00,VWS V14.01,2013-01-01 08:02:00,
2013-01-01 00:07:00,43.2,19.3,30.11,ESE,120,0.0,0.0,38,0.00,,,0.00,VWS V14.01,2013-01-01 08:07:00,
2013-01-01 00:12:00,43.2,19.3,30.11,ESE,120,0.0,0.0,38,0.00,,,0.00,VWS V14.01,2013-01-01 08:12:00,
2013-01-01 00:17:00,43.2,19.3,30.11,SSE,159,0.0,0.0,38,0.00,,,0.00,VWS V14.01,2013-01-01 08:17:00,
2013-01-01 00:22:00,43.0,19.1,30.11,SSE,163,0.0,3.1,38,0.00,,,0.00,VWS V14.01,2013-01-01 08:22:00,
2013-01-01 00:27:00,43.0,19.1,30.08,SE,131,0.0,0.0,38,0.00,,,0.00,VWS V14.01,2013-01-01 08:27:00,
2013-01-01 00:32:00,43.0,19.1,30.08,SSE,166,0.0,0.0,38,0.00,,,0.00,VWS V14.01,2013-01-01 08:32:00,
2013-01-01 00:37:00,43.0,17.2,30.08,SE,138,0.0,0.0,35,0.00,,,0.00,VWS V14.01,2013-01-01 08:37:00,
2013-01-01 00:42:00,43.0,15.9,30.11,SE,136,0.0,0.0,33,0.00,,,0.00,VWS V14.01,2013-01-01 08:42:00,
2013-01-01 00:47:00,42.8,15.0,30.11,SE,136,0.0,0.0,32,0.00,,,0.00,VWS V14.01,2013-01-01 08:47:00,
2013-01-01 00:52:00,42.4,14.7,30.11,SE,136,0.0,0.0,32,0.00,,,0.00,VWS V14.01,2013-01-01 08:52:00,
2013-01-01 00:57:00,42.3,13.8,30.11,SE,136,0.0,0.0,31,0.00,,,0.00,VWS V14.01,2013-01-01 08:57:00,
2013-01-01 01:02:00,41.7,12.6,30.11,SE,136,0.0,0.0,30,0.00,,,0.00,VWS V14.01,2013-01-01 09:02:00,
2013-01-01 01:07:00,41.5,12.4,30.11,SE,136,0.0,0.0,30,0.00,,,0.00,VWS V14.01,2013-01-01 09:07:00,
2013-01-01 01:12:00,41.5,11.7,30.11,SE,136,0.0,0.0,29,0.00,,,0.00,VWS V14.01,2013-01-01 09:12:00,
2013-01-01 01:17:00,41.5,11.7,30.11,SE,136,0.0,0.0,29,0.00,,,0.00,VWS V14.01,2013-01-01 09:17:00,
2013-01-01 01:22:00,41.5,10.9,30.11,SE,136,0.0,0.0,28,0.00,,,0.00,VWS V14.01,2013-01-01 09:22:00,
2013-01-01 01:27:00,41.7,11.0,30.11,SE,136,0.0,0.0,28,0.00,,,0.00,VWS V14.01,2013-01-01 09:27:00,
2013-01-01 01:32:00,41.9,9.5,30.11,SE,135,0.0,0.0,26,0.00,,,0.00,VWS V14.01,2013-01-01 09:32:00,
2013-01-01 01:37:00,41.7,9.4,30.11,SE,136,0.0,0.0,26,0.00,,,0.00,VWS V14.01,2013-01-01 09:37:00,
2013-01-01 01:42:00,41.7,11.0,30.11,SE,131,0.0,0.0,28,0.00,,,0.00,VWS V14.01,2013-01-01 09:42:00,
2013-01-01 01:47:00,41.9,11.2,30.11,SE,128,2.2,2.2,28,0.00,,,0.00,VWS V14.01,2013-01-01 09:47:00,
2013-01-01 01:52:00,42.3,12.3,30.11,SE,137,0.0,2.2,29,0.00,,,0.00,VWS V14.01,2013-01-01 09:52:00,
2013-01-01 01:57:00,42.4,12.4,30.08,ESE,121,0.0,0.0,29,0.00,,,0.00,VWS V14.01,2013-01-01 09:57:00,
2013-01-01 02:02:00,42.8,12.8,30.08,ESE,120,0.0,2.7,29,0.00,,,0.00,VWS V14.01,2013-01-01 10:02:00,
2013-01-01 02:07:00,42.8,12.8,30.08,ESE,123,0.0,2.2,29,0.00,,,0.00,VWS V14.01,2013-01-01 10:07:00,
2013-01-01 02:12:00,42.6,12.6,30.08,ESE,119,0.0,0.0,29,0.00,,,0.00,VWS V14.01,2013-01-01 10:12:00,
2013-01-01 02:17:00,42.6,12.6,30.08,South,170,0.0,0.0,29,0.00,,,0.00,VWS V14.01,2013-01-01 10:17:00,
2013-01-01 02:22:00,42.6,12.6,30.08,South,171,0.0,0.0,29,0.00,,,0.00,VWS V14.01,2013-01-01 10:22:00,
2013-01-01 02:27:00,42.6,13.4,30.08,South,170,0.0,0.0,30,0.00,,,0.00,VWS V14.01,2013-01-01 10:27:00,
2013-01-01 02:32:00,42.4,13.2,30.08,South,171,0.0,0.0,30,0.00,,,0.00,VWS V14.01,2013-01-01 10:32:00,
2013-01-01 02:37:00,42.3,13.1,30.08,South,170,0.0,0.0,30,0.00,,,0.00,VWS V14.01,2013-01-01 10:37:00,
2013-01-01 02:42:00,42.3,13.8,30.11,South,171,0.0,0.0,31,0.00,,,0.00,VWS V14.01,2013-01-01 10:42:00,
2013-01-01 02:47:00,42.4,14.7,30.11,South,171,0.0,0.0,32,0.00,,,0.00,VWS V14.01,2013-01-01 10:47:00,
2013-01-01 02:52:00,42.6,14.8,30.11,South,170,0.0,0.0,32,0.00,,,0.00,VWS V14.01,2013-01-01 10:52:00,
2013-01-01 02:57:00,42.6,15.6,30.11,South,171,0.0,0.0,33,0.00,,,0.00,VWS V14.01,2013-01-01 10:57:00,
2013-01-01 03:02:00,42.8,17.1,30.11,South,171,0.0,0.0,35,0.00,,,0.00,VWS V14.01,2013-01-01 11:02:00,
2013-01-01 03:08:00,43.0,17.2,30.11,South,171,0.0,0.0,35,0.00,,,0.00,VWS V14.01,2013-01-01 11:08:00,
2013-01-01 03:13:00,43.2,18.7,30.08,South,170,0.0,0.0,37,0.00,,,0.00,VWS V14.01,2013-01-01 11:13:00,
2013-01-01 03:18:00,43.2,19.3,30.08,South,170,0.0,0.0,38,0.00,,,0.00,VWS V14.01,2013-01-01 11:18:00,
2013-01-01 03:23:00,43.3,19.5,30.08,South,170,0.0,0.0,38,0.00,,,0.00,VWS V14.01,2013-01-01 11:23:00,
2013-01-01 03:28:00,43.5,19.6,30.11,South,170,0.0,0.0,38,0.00,,,0.00,VWS V14.01,2013-01-01 11:28:00,
2013-01-01 03:33:00,43.5,19.6,30.11,South,171,0.0,0.0,38,0.00,,,0.00,VWS V14.01,2013-01-01 11:33:00,
2013-01-01 03:38:00,43.5,19.6,30.11,South,170,0.0,0.0,38,0.00,,,0.00,VWS V14.01,2013-01-01 11:38:00,
2013-01-01 03:43:00,43.5,20.2,30.11,South,170,0.0,0.0,39,0.00,,,0.00,VWS V14.01,2013-01-01 11:43:00,
2013-01-01 03:48:00,43.3,19.5,30.11,NNE,26,0.0,3.1,38,0.00,,,0.00,VWS V14.01,2013-01-01 11:48:00,
2013-01-01 03:53:00,43.3,19.5,30.11,NNE,20,3.1,3.6,38,0.00,,,0.00,VWS V14.01,2013-01-01 11:53:00,
2013-01-01 03:58:00,43.3,19.5,30.11,NNE,24,0.0,0.0,38,0.00,,,0.00,VWS V14.01,2013-01-01 11:58:00,
2013-01-01 04:03:00,43.5,20.2,30.11,NNE,23,4.0,4.9,39,0.00,,,0.00,VWS V14.01,2013-01-01 12:03:00,
2013-01-01 04:08:00,43.3,20.1,30.11,NNE,14,0.0,3.6,39,0.00,,,0.00,VWS V14.01,2013-01-01 12:08:00,
2013-01-01 04:13:00,43.2,19.9,30.11,NNE,21,2.7,4.9,39,0.00,,,0.00,VWS V14.01,2013-01-01 12:13:00,
2013-01-01 04:18:00,42.8,19.6,30.11,NNE,27,3.6,4.9,39,0.00,,,0.00,VWS V14.01,2013-01-01 12:18:00,
2013-01-01 04:23:00,42.4,19.2,30.11,ENE,60,3.6,3.6,39,0.00,,,0.00,VWS V14.01,2013-01-01 12:23:00,
2013-01-01 04:28:00,42.1,18.9,30.11,ESE,117,4.5,4.5,39,0.00,,,0.00,VWS V14.01,2013-01-01 12:28:00,
2013-01-01 04:33:00,41.5,18.4,30.11,SE,137,7.2,7.2,39,0.00,,,0.00,VWS V14.01,2013-01-01 12:33:00,
2013-01-01 04:38:00,41.0,18.0,30.11,ESE,119,3.1,4.5,39,0.00,,,0.00,VWS V14.01,2013-01-01 12:38:00,
2013-01-01 04:43:00,40.6,17.6,30.11,SSE,157,2.2,4.9,39,0.00,,,0.00,VWS V14.01,2013-01-01 12:43:00,
2013-01-01 04:48:00,40.3,16.1,30.11,North,0,4.9,4.9,37,0.00,,,0.00,VWS V14.01,2013-01-01 12:48:00,
2013-01-01 04:53:00,40.1,14.7,30.11,WNW,293,3.1,3.1,35,0.00,,,0.00,VWS V14.01,2013-01-01 12:53:00,
2013-01-01 04:58:00,39.9,13.2,30.08,NE,51,5.8,5.8,33,0.00,,,0.00,VWS V14.01,2013-01-01 12:58:00,
2013-01-01 05:03:00,39.6,11.4,30.08,North,4,0.0,0.0,31,0.00,,,0.00,VWS V14.01,2013-01-01 13:03:00,
2013-01-01 05:08:00,39.4,10.5,30.08,ENE,73,5.4,5.4,30,0.00,,,0.00,VWS V14.01,2013-01-01 13:08:00,
2013-01-01 05:13:00,39.4,10.5,30.08,ENE,69,8.1,8.1,30,0.00,,,0.00,VWS V14.01,2013-01-01 13:13:00,
2013-01-01 05:18:00,39.2,9.6,30.08,ENE,77,2.7,5.4,29,0.00,,,0.00,VWS V14.01,2013-01-01 13:18:00,
2013-01-01 05:23:00,39.0,10.2,30.08,ENE,64,3.1,4.0,30,0.00,,,0.00,VWS V14.01,2013-01-01 13:23:00,
2013-01-01 05:28:00,38.8,10.1,30.08,SE,146,4.9,4.9,30,0.00,,,0.00,VWS V14.01,2013-01-01 13:28:00,
2013-01-01 05:33:00,38.8,10.1,30.08,North,357,6.3,6.3,30,0.00,,,0.00,VWS V14.01,2013-01-01 13:33:00,
2013-01-01 05:38:00,38.7,9.9,30.08,East,101,5.8,5.8,30,0.00,,,0.00,VWS V14.01,2013-01-01 13:38:00,
2013-01-01 05:43:00,38.5,10.5,30.08,NNE,18,2.7,7.6,31,0.00,,,0.00,VWS V14.01,2013-01-01 13:43:00,
2013-01-01 05:48:00,38.5,10.5,30.08,North,350,2.7,3.1,31,0.00,,,0.00,VWS V14.01,2013-01-01 13:48:00,
2013-01-01 05:53:00,38.3,10.3,30.11,NNW,338,0.0,2.7,31,0.00,,,0.00,VWS V14.01,2013-01-01 13:53:00,
2013-01-01 05:58:00,38.1,10.2,30.11,SE,124,3.6,3.6,31,0.00,,,0.00,VWS V14.01,2013-01-01 13:58:00,
2013-01-01 06:03:00,38.1,10.2,30.11,ESE,109,0.0,5.8,31,0.00,,,0.00,VWS V14.01,2013-01-01 14:03:00,
2013-01-01 06:08:00,38.1,10.2,30.08,North,357,5.4,5.4,31,0.00,,,0.00,VWS V14.01,2013-01-01 14:08:00,
2013-01-01 06:13:00,38.1,10.9,30.08,NNE,17,0.0,0.0,32,0.00,,,0.00,VWS V14.01,2013-01-01 14:13:00,
2013-01-01 06:18:00,38.1,11.6,30.08,North,0,5.4,8.3,33,0.00,,,0.00,VWS V14.01,2013-01-01 14:18:00,
2013-01-01 06:23:00,38.3,13.1,30.08,NNE,20,10.1,10.1,35,0.00,,,0.00,VWS V14.01,2013-01-01 14:23:00,
2013-01-01 06:28:00,38.5,13.2,30.11,West,275,5.8,5.8,35,0.00,,,0.00,VWS V14.01,2013-01-01 14:28:00,
2013-01-01 06:33:00,38.5,12.6,30.11,NE,55,3.1,7.2,34,0.00,,,0.00,VWS V14.01,2013-01-01 14:33:00,
2013-01-01 06:38:00,38.7,12.7,30.11,NE,43,4.5,5.8,34,0.00,,,0.00,VWS V14.01,2013-01-01 14:38:00,
2013-01-01 06:43:00,38.7,12.1,30.11,SW,214,0.0,5.8,33,0.00,,,0.00,VWS V14.01,2013-01-01 14:43:00,
2013-01-01 06:48:00,38.7,11.4,30.11,East,84,3.6,4.0,32,0.00,,,0.00,VWS V14.01,2013-01-01 14:48:00,
2013-01-01 06:53:00,38.7,11.4,30.11,NNE,20,3.1,8.1,32,0.00,,,0.00,VWS V14.01,2013-01-01 14:53:00,
2013-01-01 06:58:00,38.7,11.4,30.11,NNW,346,5.8,5.8,32,0.00,,,0.00,VWS V14.01,2013-01-01 14:58:00,
2013-01-01 07:03:00,38.5,11.2,30.11,NE,51,5.4,8.7,32,0.00,,,0.00,VWS V14.01,2013-01-01 15:03:00,
2013-01-01 07:08:00,38.5,11.2,30.11,NE,51,8.1,8.1,32,0.00,,,0.00,VWS V14.01,2013-01-01 15:08:00,
2013-01-01 07:13:00,38.5,11.2,30.11,NNE,29,5.8,5.8,32,0.00,,,0.00,VWS V14.01,2013-01-01 15:13:00,
2013-01-01 07:18:00,38.5,10.5,30.11,NE,52,4.5,5.4,31,0.00,,,0.00,VWS V14.01,2013-01-01 15:18:00,
2013-01-01 07:23:00,38.5,11.2,30.11,East,81,3.6,4.9,32,0.00,,,0.00,VWS V14.01,2013-01-01 15:23:00,
2013-01-01 07:28:00,38.3,11.0,30.11,NE,47,8.3,8.7,32,0.00,,,0.00,VWS V14.01,2013-01-01 15:28:00,
2013-01-01 07:33:00,38.1,10.9,30.11,North,10,6.3,7.6,32,0.00,,,0.00,VWS V14.01,2013-01-01 15:33:00,
2013-01-01 07:38:00,38.1,10.9,30.11,NNE,21,3.1,8.7,32,0.00,,,0.00,VWS V14.01,2013-01-01 15:38:00,
2013-01-01 07:43:00,38.1,11.6,30.11,ESE,106,3.6,4.0,33,0.00,,,0.00,VWS V14.01,2013-01-01 15:43:00,
2013-01-01 07:48:00,38.3,11.0,30.11,NNE,15,2.2,8.1,32,0.00,,,0.00,VWS V14.01,2013-01-01 15:48:00,
2013-01-01 07:53:00,38.3,11.0,30.11,NE,47,10.5,10.5,32,0.00,,,0.00,VWS V14.01,2013-01-01 15:53:00,
2013-01-01 07:58:00,38.5,10.5,30.11,NNE,22,4.9,11.9,31,0.00,,,0.00,VWS V14.01,2013-01-01 15:58:00,
2013-01-01 08:03:00,38.7,10.6,30.11,NNE,32,5.8,12.8,31,0.00,,,0.00,VWS V14.01,2013-01-01 16:03:00,
2013-01-01 08:08:00,38.7,10.6,30.11,North,11,5.4,8.1,31,0.00,,,0.00,VWS V14.01,2013-01-01 16:08:00,
2013-01-01 08:13:00,39.0,11.0,30.11,NW,313,5.4,6.3,31,0.00,,,0.00,VWS V14.01,2013-01-01 16:13:00,
2013-01-01 08:18:00,39.2,10.4,30.11,NNE,16,4.9,5.4,30,0.00,,,0.00,VWS V14.01,2013-01-01 16:18:00,
2013-01-01 08:24:00,39.4,10.5,30.11,NE,36,4.0,8.1,30,0.00,,,0.00,VWS V14.01,2013-01-01 16:24:00,
2013-01-01 08:29:00,39.6,9.9,30.11,NNE,19,3.6,8.7,29,0.00,,,0.00,VWS V14.01,2013-01-01 16:29:00,
2013-01-01 08:34:00,39.7,10.1,30.11,NE,37,3.1,7.6,29,0.00,,,0.00,VWS V14.01,2013-01-01 16:34:00,
2013-01-01 08:39:00,39.7,10.1,30.11,NE,37,3.6,9.2,29,0.00,,,0.00,VWS V14.01,2013-01-01 16:39:00,
2013-01-01 08:44:00,40.1,10.4,30.11,NE,49,6.7,10.5,29,0.00,,,0.00,VWS V14.01,2013-01-01 16:44:00,
2013-01-01 08:49:00,40.3,10.6,30.11,NNE,22,7.6,10.1,29,0.00,,,0.00,VWS V14.01,2013-01-01 16:49:00,
2013-01-01 08:54:00,40.5,9.9,30.11,NE,40,5.8,10.1,28,0.00,,,0.00,VWS V14.01,2013-01-01 16:54:00,
2013-01-01 08:59:00,40.6,10.1,30.11,NE,45,3.6,10.1,28,0.00,,,0.00,VWS V14.01,2013-01-01 16:59:00,
2013-01-01 09:04:00,41.2,10.6,30.11,North,353,8.7,8.7,28,0.00,,,0.00,VWS V14.01,2013-01-01 17:04:00,
2013-01-01 09:09:00,41.5,9.2,30.11,NE,37,4.0,6.3,26,0.00,,,0.00,VWS V14.01,2013-01-01 17:09:00,
2013-01-01 09:14:00,41.7,6.7,30.11,NNW,338,2.7,2.7,23,0.00,,,0.00,VWS V14.01,2013-01-01 17:14:00,
2013-01-01 09:19:00,42.1,7.0,30.11,North,0,6.3,6.3,23,0.00,,,0.00,VWS V14.01,2013-01-01 17:19:00,
2013-01-01 09:24:00,42.3,7.1,30.11,North,0,5.4,6.3,23,0.00,,,0.00,VWS V14.01,2013-01-01 17:24:00,
2013-01-01 09:29:00,42.4,7.3,30.11,NE,43,5.8,8.1,23,0.00,,,0.00,VWS V14.01,2013-01-01 17:29:00,
2013-01-01 09:34:00,42.4,7.3,30.11,North,4,3.6,4.0,23,0.00,,,0.00,VWS V14.01,2013-01-01 17:34:00,
2013-01-01 09:39:00,42.8,7.6,30.11,NNE,19,5.8,5.8,23,0.00,,,0.00,VWS V14.01,2013-01-01 17:39:00,
2013-01-01 09:44:00,42.8,4.5,30.11,ENE,63,3.1,8.1,20,0.00,,,0.00,VWS V14.01,2013-01-01 17:44:00,
2013-01-01 09:49:00,43.0,4.7,30.11,North,0,3.1,3.1,20,0.00,,,0.00,VWS V14.01,2013-01-01 17:49:00,
2013-01-01 09:54:00,43.3,5.0,30.11,East,81,5.4,6.3,20,0.00,,,0.00,VWS V14.01,2013-01-01 17:54:00,
2013-01-01 09:59:00,43.7,5.3,30.11,NE,41,7.2,7.2,20,0.00,,,0.00,VWS V14.01,2013-01-01 17:59:00,
2013-01-01 10:04:00,44.1,3.3,30.11,ENE,63,5.4,6.7,18,0.00,,,0.00,VWS V14.01,2013-01-01 18:04:00,
2013-01-01 10:09:00,44.4,3.6,30.11,North,7,5.8,7.6,18,0.00,,,0.00,VWS V14.01,2013-01-01 18:09:00,
2013-01-01 10:14:00,44.6,2.5,30.11,NNE,13,3.6,4.0,17,0.00,,,0.00,VWS V14.01,2013-01-01 18:14:00,
2013-01-01 10:19:00,45.0,2.8,30.11,ENE,62,3.1,6.3,17,0.00,,,0.00,VWS V14.01,2013-01-01 18:19:00,
2013-01-01 10:24:00,45.1,2.9,30.11,ENE,61,4.0,8.7,17,0.00,,,0.00,VWS V14.01,2013-01-01 18:24:00,
2013-01-01 10:29:00,45.3,3.1,30.11,NE,35,4.0,8.3,17,0.00,,,0.00,VWS V14.01,2013-01-01 18:29:00,
2013-01-01 10:34:00,45.7,3.4,30.11,ESE,116,3.6,5.4,17,0.00,,,0.00,VWS V14.01,2013-01-01 18:34:00,
2013-01-01 10:39:00,46.0,1.0,30.11,SSE,156,2.7,10.5,15,0.00,,,0.00,VWS V14.01,2013-01-01 18:39:00,
2013-01-01 10:44:00,46.6,4.1,30.11,South,180,3.1,3.1,17,0.00,,,0.00,VWS V14.01,2013-01-01 18:44:00,
2013-01-01 10:49:00,47.1,0.4,30.11,NW,316,5.4,7.6,14,0.00,,,0.00,VWS V14.01,2013-01-01 18:49:00,
2013-01-01 10:54:00,47.3,0.5,30.11,WSW,241,2.7,4.0,14,0.00,,,0.00,VWS V14.01,2013-01-01 18:54:00,
2013-01-01 10:59:00,47.3,0.5,30.11,NW,312,3.6,4.9,14,0.00,,,0.00,VWS V14.01,2013-01-01 18:59:00,
2013-01-01 11:04:00,47.5,0.7,30.11,ESE,106,7.6,7.6,14,0.00,,,0.00,VWS V14.01,2013-01-01 19:04:00,
2013-01-01 11:09:00,47.5,0.7,30.11,NNW,334,6.3,6.7,14,0.00,,,0.00,VWS V14.01,2013-01-01 19:09:00,
2013-01-01 11:14:00,47.5,0.7,30.11,ESE,111,5.8,8.3,14,0.00,,,0.00,VWS V14.01,2013-01-01 19:14:00,
2013-01-01 11:19:00,47.5,0.7,30.11,NE,37,5.4,5.8,14,0.00,,,0.00,VWS V14.01,2013-01-01 19:19:00,
2013-01-01 11:24:00,47.5,0.7,30.11,NW,320,3.1,8.1,14,0.00,,,0.00,VWS V14.01,2013-01-01 19:24:00,
2013-01-01 11:29:00,47.5,0.7,30.11,NE,40,3.1,10.1,14,0.00,,,0.00,VWS V14.01,2013-01-01 19:29:00,
2013-01-01 11:34:00,47.7,0.8,30.11,ENE,75,5.8,5.8,14,0.00,,,0.00,VWS V14.01,2013-01-01 19:34:00,
2013-01-01 11:39:00,47.7,0.8,30.11,North,357,4.9,5.4,14,0.00,,,0.00,VWS V14.01,2013-01-01 19:39:00,
2013-01-01 11:44:00,47.7,0.8,30.11,NE,48,5.8,5.8,14,0.00,,,0.00,VWS V14.01,2013-01-01 19:44:00,
2013-01-01 11:49:00,47.7,0.8,30.11,SSE,150,3.1,5.8,14,0.00,,,0.00,VWS V14.01,2013-01-01 19:49:00,
2013-01-01 11:54:00,47.8,1.0,30.08,SE,145,3.6,5.4,14,0.00,,,0.00,VWS V14.01,2013-01-01 19:54:00,
2013-01-01 11:59:00,47.8,1.0,30.08,WNW,282,4.0,9.2,14,0.00,,,0.00,VWS V14.01,2013-01-01 19:59:00,
2013-01-01 12:04:00,47.7,0.8,30.08,NNE,13,8.7,12.3,14,0.00,,,0.00,VWS V14.01,2013-01-01 20:04:00,
2013-01-01 12:10:00,47.7,0.8,30.08,NW,324,8.1,8.1,14,0.00,,,0.00,VWS V14.01,2013-01-01 20:10:00,
2013-01-01 12:15:00,47.5,0.7,30.08,NNE,33,12.8,12.8,14,0.00,,,0.00,VWS V14.01,2013-01-01 20:15:00,
2013-01-01 12:20:00,47.5,0.7,30.08,ESE,117,8.1,11.9,14,0.00,,,0.00,VWS V14.01,2013-01-01 20:20:00,
2013-01-01 12:25:00,47.7,0.8,30.08,NE,36,5.4,8.1,14,0.00,,,0.00,VWS V14.01,2013-01-01 20:25:00,
2013-01-01 12:30:00,47.8,1.0,30.08,ENE,68,7.6,10.1,14,0.00,,,0.00,VWS V14.01,2013-01-01 20:30:00,
2013-01-01 12:35:00,48.0,1.1,30.08,North,357,8.7,8.7,14,0.00,,,0.00,VWS V14.01,2013-01-01 20:35:00,
2013-01-01 12:40:00,48.2,1.2,30.08,ESE,106,7.6,10.1,14,0.00,,,0.00,VWS V14.01,2013-01-01 20:40:00,
2013-01-01 12:45:00,48.4,1.4,30.08,NE,49,5.8,8.7,14,0.00,,,0.00,VWS V14.01,2013-01-01 20:45:00,
2013-01-01 12:50:00,48.7,1.7,30.08,ESE,122,5.8,7.6,14,0.00,,,0.00,VWS V14.01,2013-01-01 20:50:00,
2013-01-01 12:55:00,48.9,1.8,30.08,ENE,62,2.7,4.0,14,0.00,,,0.00,VWS V14.01,2013-01-01 20:55:00,
2013-01-01 13:00:00,49.3,2.1,30.08,ENE,61,4.0,8.1,14,0.00,,,0.00,VWS V14.01,2013-01-01 21:00:00,
2013-01-01 13:05:00,49.3,2.1,30.08,ENE,57,12.3,13.2,14,0.00,,,0.00,VWS V14.01,2013-01-01 21:05:00,
2013-01-01 13:10:00,49.1,2.0,30.08,NNE,14,4.0,10.5,14,0.00,,,0.00,VWS V14.01,2013-01-01 21:10:00,
2013-01-01 13:15:00,49.3,2.1,30.08,SE,136,10.1,10.1,14,0.00,,,0.00,VWS V14.01,2013-01-01 21:15:00,
2013-01-01 13:20:00,49.1,2.0,30.08,NNE,23,5.4,9.2,14,0.00,,,0.00,VWS V14.01,2013-01-01 21:20:00,
2013-01-01 13:25:00,49.5,2.3,30.08,SE,130,7.2,7.2,14,0.00,,,0.00,VWS V14.01,2013-01-01 21:25:00,
2013-01-01 13:30:00,49.3,2.1,30.08,NE,45,15.0,15.0,14,0.00,,,0.00,VWS V14.01,2013-01-01 21:30:00,
2013-01-01 13:35:00,49.3,2.1,30.08,NE,47,8.3,11.0,14,0.00,,,0.00,VWS V14.01,2013-01-01 21:35:00,
2013-01-01 13:40:00,49.3,2.1,30.08,NE,45,7.6,7.6,14,0.00,,,0.00,VWS V14.01,2013-01-01 21:40:00,
2013-01-01 13:45:00,49.6,2.4,30.08,ESE,118,3.6,5.4,14,0.00,,,0.00,VWS V14.01,2013-01-01 21:45:00,
2013-01-01 13:50:00,49.8,2.5,30.08,ENE,65,5.8,10.1,14,0.00,,,0.00,VWS V14.01,2013-01-01 21:50:00,
2013-01-01 13:55:00,50.0,2.7,30.08,ENE,60,5.4,5.8,14,0.00,,,0.00,VWS V14.01,2013-01-01 21:55:00,
2013-01-01 14:00:00,50.2,2.8,30.08,NE,45,8.1,8.7,14,0.00,,,0.00,VWS V14.01,2013-01-01 22:00:00,
2013-01-01 14:05:00,50.2,2.8,30.08,NE,38,5.8,5.8,14,0.00,,,0.00,VWS V14.01,2013-01-01 22:05:00,
2013-01-01 14:10:00,50.4,3.0,30.08,NNE,19,2.7,10.1,14,0.00,,,0.00,VWS V14.01,2013-01-01 22:10:00,
2013-01-01 14:15:00,50.4,3.0,30.08,NNE,28,3.6,6.3,14,0.00,,,0.00,VWS V14.01,2013-01-01 22:15:00,
2013-01-01 14:20:00,50.4,3.0,30.08,NNE,28,10.1,10.1,14,0.00,,,0.00,VWS V14.01,2013-01-01 22:20:00,
2013-01-01 14:25:00,50.5,3.1,30.08,NNE,27,3.1,3.1,14,0.00,,,0.00,VWS V14.01,2013-01-01 22:25:00,
2013-01-01 14:30:00,50.7,3.3,30.08,NNE,33,4.0,4.0,14,0.00,,,0.00,VWS V14.01,2013-01-01 22:30:00,
2013-01-01 14:35:00,50.5,3.1,30.08,NNE,27,6.3,6.3,14,0.00,,,0.00,VWS V14.01,2013-01-01 22:35:00,
2013-01-01 14:40:00,50.5,3.1,30.08,East,87,3.1,3.1,14,0.00,,,0.00,VWS V14.01,2013-01-01 22:40:00,
2013-01-01 14:45:00,50.5,3.1,30.08,NE,49,5.4,5.4,14,0.00,,,0.00,VWS V14.01,2013-01-01 22:45:00,
2013-01-01 14:50:00,50.5,3.1,30.08,SSE,167,4.0,4.0,14,0.00,,,0.00,VWS V14.01,2013-01-01 22:50:00,
2013-01-01 14:55:00,50.9,3.4,30.08,SE,139,2.7,4.0,14,0.00,,,0.00,VWS V14.01,2013-01-01 22:55:00,
2013-01-01 15:00:00,51.3,3.7,30.08,WSW,253,3.1,3.1,14,0.00,,,0.00,VWS V14.01,2013-01-01 23:00:00,
2013-01-01 15:05:00,51.4,3.8,30.08,NW,311,3.1,3.6,14,0.00,,,0.00,VWS V14.01,2013-01-01 23:05:00,
2013-01-01 15:10:00,51.1,3.6,30.08,East,82,5.4,6.3,14,0.00,,,0.00,VWS V14.01,2013-01-01 23:10:00,
2013-01-01 15:15:00,50.7,3.3,30.08,North,1,2.7,3.1,14,0.00,,,0.00,VWS V14.01,2013-01-01 23:15:00,
2013-01-01 15:20:00,50.4,3.0,30.08,SE,135,5.4,5.4,14,0.00,,,0.00,VWS V14.01,2013-01-01 23:20:00,
2013-01-01 15:25:00,50.4,3.0,30.08,NNE,28,7.6,7.6,14,0.00,,,0.00,VWS V14.01,2013-01-01 23:25:00,
2013-01-01 15:30:00,50.4,3.0,30.08,SE,126,4.0,5.8,14,0.00,,,0.00,VWS V14.01,2013-01-01 23:30:00,
2013-01-01 15:35:00,50.4,3.0,30.08,North,5,3.6,4.0,14,0.00,,,0.00,VWS V14.01,2013-01-01 23:35:00,
2013-01-01 15:40:00,50.4,3.0,30.08,NNE,29,3.6,3.6,14,0.00,,,0.00,VWS V14.01,2013-01-01 23:40:00,
2013-01-01 15:45:00,50.4,3.0,30.08,SW,220,4.0,5.4,14,0.00,,,0.00,VWS V14.01,2013-01-01 23:45:00,
2013-01-01 15:50:00,50.4,3.0,30.08,SSW,203,3.6,4.5,14,0.00,,,0.00,VWS V14.01,2013-01-01 23:50:00,
2013-01-01 15:55:00,50.4,3.0,30.11,NE,47,2.2,3.1,14,0.00,,,0.00,VWS V14.01,2013-01-01 23:55:00,
2013-01-01 16:00:00,50.2,2.8,30.11,ENE,73,4.0,5.4,14,0.00,,,0.00,VWS V14.01,2013-01-02 00:00:00,
2013-01-01 16:05:00,50.0,2.7,30.11,NNE,16,7.6,8.7,14,0.00,,,0.00,VWS V14.01,2013-01-02 00:05:00,
2013-01-01 16:10:00,49.8,2.5,30.11,ENE,68,6.7,6.7,14,0.00,,,0.00,VWS V14.01,2013-01-02 00:10:00,
2013-01-01 16:15:00,49.5,2.3,30.11,NW,305,8.3,8.3,14,0.00,,,0.00,VWS V14.01,2013-01-02 00:15:00,
2013-01-01 16:20:00,49.3,2.1,30.11,SE,129,4.0,4.0,14,0.00,,,0.00,VWS V14.01,2013-01-02 00:20:00,
2013-01-01 16:25:00,49.1,2.0,30.11,ESE,123,3.6,4.5,14,0.00,,,0.00,VWS V14.01,2013-01-02 00:25:00,
2013-01-01 16:30:00,48.9,1.8,30.11,NNW,348,2.7,3.1,14,0.00,,,0.00,VWS V14.01,2013-01-02 00:30:00,
2013-01-01 16:35:00,48.7,1.7,30.11,North,9,3.1,5.8,14,0.00,,,0.00,VWS V14.01,2013-01-02 00:35:00,
2013-01-01 16:40:00,48.4,1.4,30.11,East,85,4.9,4.9,14,0.00,,,0.00,VWS V14.01,2013-01-02 00:40:00,
2013-01-01 16:45:00,48.0,1.1,30.11,North,353,3.1,4.9,14,0.00,,,0.00,VWS V14.01,2013-01-02 00:45:00,
2013-01-01 16:50:00,47.7,0.8,30.11,SE,132,2.7,3.6,14,0.00,,,0.00,VWS V14.01,2013-01-02 00:50:00,
2013-01-01 16:55:00,47.3,0.5,30.11,North,11,3.1,7.2,14,0.00,,,0.00,VWS V14.01,2013-01-02 00:55:00,
2013-01-01 17:00:00,47.1,0.4,30.11,ESE,109,2.7,5.4,14,0.00,,,0.00,VWS V14.01,2013-01-02 01:00:00,
2013-01-01 17:05:00,46.8,0.1,30.11,ENE,60,2.2,4.9,14,0.00,,,0.00,VWS V14.01,2013-01-02 01:05:00,
2013-01-01 17:10:00,46.6,-0.1,30.11,NNE,30,4.9,5.4,14,0.00,,,0.00,VWS V14.01,2013-01-02 01:10:00,
2013-01-01 17:15:00,46.2,1.1,30.11,East,93,2.2,2.7,15,0.00,,,0.00,VWS V14.01,2013-01-02 01:15:00,
2013-01-01 17:21:00,46.0,1.0,30.11,NNE,31,2.7,2.7,15,0.00,,,0.00,VWS V14.01,2013-01-02 01:21:00,
2013-01-01 17:26:00,45.9,0.8,30.08,East,95,2.7,4.0,15,0.00,,,0.00,VWS V14.01,2013-01-02 01:26:00,
2013-01-01 17:31:00,45.5,0.6,30.08,ENE,66,2.7,4.0,15,0.00,,,0.00,VWS V14.01,2013-01-02 01:31:00,
2013-01-01 17:36:00,45.3,0.4,30.08,ENE,77,4.9,6.3,15,0.00,,,0.00,VWS V14.01,2013-01-02 01:36:00,
2013-01-01 17:41:00,45.1,0.3,30.08,NNE,20,5.8,7.2,15,0.00,,,0.00,VWS V14.01,2013-01-02 01:41:00,
2013-01-01 17:46:00,45.5,0.6,30.08,NE,51,2.7,5.8,15,0.00,,,0.00,VWS V14.01,2013-01-02 01:46:00,
2013-01-01 17:51:00,45.7,0.7,30.08,WSW,239,2.2,4.0,15,0.00,,,0.00,VWS V14.01,2013-01-02 01:51:00,
2013-01-01 17:56:00,45.7,0.7,30.08,NNE,21,4.9,6.3,15,0.00,,,0.00,VWS V14.01,2013-01-02 01:56:00,
2013-01-01 18:01:00,45.5,0.6,30.08,NNE,20,5.8,8.3,15,0.00,,,0.00,VWS V14.01,2013-01-02 02:01:00,
2013-01-01 18:06:00,45.5,0.6,30.08,East,93,0.0,3.6,15,0.00,,,0.00,VWS V14.01,2013-01-02 02:06:00,
2013-01-01 18:11:00,45.3,0.4,30.08,NE,35,3.6,4.9,15,0.00,,,0.00,VWS V14.01,2013-01-02 02:11:00,
2013-01-01 18:16:00,45.1,0.3,30.08,ENE,77,2.2,5.4,15,0.00,,,0.00,VWS V14.01,2013-01-02 02:16:00,
2013-01-01 18:21:00,45.1,0.3,30.08,NW,314,4.0,4.0,15,0.00,,,0.00,VWS V14.01,2013-01-02 02:21:00,
2013-01-01 18:26:00,45.1,0.3,30.08,NE,44,3.1,4.5,15,0.00,,,0.00,VWS V14.01,2013-01-02 02:26:00,
2013-01-01 18:31:00,45.1,0.3,30.08,ENE,60,3.1,4.0,15,0.00,,,0.00,VWS V14.01,2013-01-02 02:31:00,
2013-01-01 18:36:00,45.1,0.3,30.08,ENE,77,2.7,11.4,15,0.00,,,0.00,VWS V14.01,2013-01-02 02:36:00,
2013-01-01 18:41:00,45.1,0.3,30.11,East,101,3.6,4.9,15,0.00,,,0.00,VWS V14.01,2013-01-02 02:41:00,
2013-01-01 18:46:00,45.1,0.3,30.11,SE,126,5.4,5.4,15,0.00,,,0.00,VWS V14.01,2013-01-02 02:46:00,
2013-01-01 18:51:00,45.1,0.3,30.11,NE,46,3.6,8.1,15,0.00,,,0.00,VWS V14.01,2013-01-02 02:51:00,
2013-01-01 18:56:00,45.1,0.3,30.11,North,353,0.0,2.7,15,0.00,,,0.00,VWS V14.01,2013-01-02 02:56:00,
2013-01-01 19:01:00,45.0,0.1,30.11,North,7,4.0,4.0,15,0.00,,,0.00,VWS V14.01,2013-01-02 03:01:00,
2013-01-01 19:06:00,45.0,0.1,30.11,NE,51,4.0,8.7,15,0.00,,,0.00,VWS V14.01,2013-01-02 03:06:00,
2013-01-01 19:11:00,45.1,0.3,30.11,ENE,62,6.3,6.3,15,0.00,,,0.00,VWS V14.01,2013-01-02 03:11:00,
2013-01-01 19:16:00,45.5,0.6,30.11,East,97,4.0,4.0,15,0.00,,,0.00,VWS V14.01,2013-01-02 03:16:00,
2013-01-01 19:21:00,45.9,0.8,30.11,North,8,2.7,2.7,15,0.00,,,0.00,VWS V14.01,2013-01-02 03:21:00,
2013-01-01 19:26:00,46.0,1.0,30.11,ENE,77,0.0,0.0,15,0.00,,,0.00,VWS V14.01,2013-01-02 03:26:00,
2013-01-01 19:31:00,46.0,1.0,30.11,ESE,103,3.1,3.6,15,0.00,,,0.00,VWS V14.01,2013-01-02 03:31:00,
2013-01-01 19:36:00,46.0,1.0,30.11,ENE,73,3.6,3.6,15,0.00,,,0.00,VWS V14.01,2013-01-02 03:36:00,
2013-01-01 19:41:00,46.2,1.1,30.11,NNW,344,4.9,4.9,15,0.00,,,0.00,VWS V14.01,2013-01-02 03:41:00,
2013-01-01 19:46:00,46.2,1.1,30.11,East,95,4.0,4.0,15,0.00,,,0.00,VWS V14.01,2013-01-02 03:46:00,
2013-01-01 19:51:00,46.4,-0.2,30.11,NNE,20,8.1,8.1,14,0.00,,,0.00,VWS V14.01,2013-01-02 03:51:00,
2013-01-01 19:56:00,46.6,-0.1,30.11,SE,137,3.1,3.1,14,0.00,,,0.00,VWS V14.01,2013-01-02 03:56:00,
2013-01-01 20:01:00,46.6,-0.1,30.11,SSE,158,3.1,3.1,14,0.00,,,0.00,VWS V14.01,2013-01-02 04:01:00,
2013-01-01 20:06:00,46.8,0.1,30.11,East,83,4.9,4.9,14,0.00,,,0.00,VWS V14.01,2013-01-02 04:06:00,
2013-01-01 20:11:00,46.6,-3.3,30.11,SSE,166,3.1,3.6,12,0.00,,,0.00,VWS V14.01,2013-01-02 04:11:00,
2013-01-01 20:16:00,46.4,-0.2,30.11,SE,128,4.9,4.9,14,0.00,,,0.00,VWS V14.01,2013-01-02 04:16:00,
2013-01-01 20:21:00,46.2,1.1,30.11,SE,144,2.7,2.7,15,0.00,,,0.00,VWS V14.01,2013-01-02 04:21:00,
2013-01-01 20:26:00,46.2,1.1,30.11,SSE,151,4.0,4.0,15,0.00,,,0.00,VWS V14.01,2013-01-02 04:26:00,
2013-01-01 20:31:00,46.2,1.1,30.11,South,173,0.0,3.1,15,0.00,,,0.00,VWS V14.01,2013-01-02 04:31:00,
2013-01-01 20:36:00,46.2,1.1,30.11,SE,125,3.6,3.6,15,0.00,,,0.00,VWS V14.01,2013-01-02 04:36:00,
2013-01-01 20:41:00,46.4,-0.2,30.14,SE,137,2.7,3.6,14,0.00,,,0.00,VWS V14.01,2013-01-02 04:41:00,
2013-01-01 20:46:00,46.6,-0.1,30.14,SE,146,0.0,0.0,14,0.00,,,0.00,VWS V14.01,2013-01-02 04:46:00,
2013-01-01 20:51:00,46.4,-0.2,30.14,SE,144,2.2,2.7,14,0.00,,,0.00,VWS V14.01,2013-01-02 04:51:00,
2013-01-01 20:56:00,46.4,-0.2,30.11,South,182,4.0,4.0,14,0.00,,,0.00,VWS V14.01,2013-01-02 04:56:00,
2013-01-01 21:00:00,46.4,-0.2,30.11,SE,128,5.8,5.8,14,0.00,,,0.00,VWS V14.01,2013-01-02 05:00:00,
2013-01-01 21:01:00,46.4,-0.2,30.11,East,100,2.7,5.8,14,0.00,,,0.00,VWS V14.01,2013-01-02 05:01:00,
2013-01-01 21:06:00,46.4,-0.2,30.11,SE,138,2.7,2.7,14,0.00,,,0.00,VWS V14.01,2013-01-02 05:06:00,
2013-01-01 21:11:00,46.4,-0.2,30.11,ESE,110,0.0,0.0,14,0.00,,,0.00,VWS V14.01,2013-01-02 05:11:00,
2013-01-01 21:16:00,46.6,-0.1,30.11,East,81,0.0,0.0,14,0.00,,,0.00,VWS V14.01,2013-01-02 05:16:00,
2013-01-01 21:21:00,46.6,-0.1,30.11,ESE,117,3.1,3.1,14,0.00,,,0.00,VWS V14.01,2013-01-02 05:21:00,
2013-01-01 21:26:00,46.6,-0.1,30.14,SE,138,2.7,2.7,14,0.00,,,0.00,VWS V14.01,2013-01-02 05:26:00,
2013-01-01 21:31:00,46.6,-0.1,30.14,SE,126,0.0,0.0,14,0.00,,,0.00,VWS V14.01,2013-01-02 05:31:00,
2013-01-01 21:36:00,46.6,-0.1,30.14,ENE,78,0.0,0.0,14,0.00,,,0.00,VWS V14.01,2013-01-02 05:36:00,
2013-01-01 21:41:00,46.6,-0.1,30.14,ESE,118,3.6,3.6,14,0.00,,,0.00,VWS V14.01,2013-01-02 05:41:00,
2013-01-01 21:46:00,46.6,-0.1,30.14,SE,138,3.1,3.1,14,0.00,,,0.00,VWS V14.01,2013-01-02 05:46:00,
2013-01-01 21:51:00,46.6,-0.1,30.14,ESE,114,3.1,3.1,14,0.00,,,0.00,VWS V14.01,2013-01-02 05:51:00,
2013-01-01 21:56:00,46.6,-0.1,30.14,SE,132,4.9,5.8,14,0.00,,,0.00,VWS V14.01,2013-01-02 05:56:00,
2013-01-01 22:01:00,46.6,-0.1,30.14,ESE,115,0.0,2.2,14,0.00,,,0.00,VWS V14.01,2013-01-02 06:01:00,
2013-01-01 22:06:00,46.6,-0.1,30.14,NNE,28,2.2,2.2,14,0.00,,,0.00,VWS V14.01,2013-01-02 06:06:00,
2013-01-01 22:11:00,46.6,-0.1,30.14,NE,44,2.2,2.7,14,0.00,,,0.00,VWS V14.01,2013-01-02 06:11:00,
2013-01-01 22:16:00,46.8,0.1,30.14,ESE,106,2.2,4.9,14,0.00,,,0.00,VWS V14.01,2013-01-02 06:16:00,
2013-01-01 22:21:00,46.9,-3.0,30.14,ESE,119,0.0,0.0,12,0.00,,,0.00,VWS V14.01,2013-01-02 06:21:00,
2013-01-01 22:26:00,46.9,0.2,30.14,SE,124,0.0,2.2,14,0.00,,,0.00,VWS V14.01,2013-01-02 06:26:00,
2013-01-01 22:31:00,46.9,-3.0,30.14,SE,131,2.7,3.1,12,0.00,,,0.00,VWS V14.01,2013-01-02 06:31:00,
2013-01-01 22:36:00,46.9,-3.0,30.14,ESE,102,3.1,3.1,12,0.00,,,0.00,VWS V14.01,2013-01-02 06:36:00,
2013-01-01 22:41:00,46.9,-3.0,30.14,ENE,69,4.9,4.9,12,0.00,,,0.00,VWS V14.01,2013-01-02 06:41:00,
2013-01-01 22:46:00,47.1,-2.9,30.14,ENE,66,0.0,0.0,12,0.00,,,0.00,VWS V14.01,2013-01-02 06:46:00,
2013-01-01 22:51:00,47.3,0.5,30.14,East,82,0.0,2.7,14,0.00,,,0.00,VWS V14.01,2013-01-02 06:51:00,
2013-01-01 22:56:00,47.3,0.5,30.11,NNE,29,2.2,2.2,14,0.00,,,0.00,VWS V14.01,2013-01-02 06:56:00,
2013-01-01 23:01:00,47.1,0.4,30.11,SSW,209,0.0,0.0,14,0.00,,,0.00,VWS V14.01,2013-01-02 07:01:00,
2013-01-01 23:06:00,47.1,0.4,30.11,SE,126,2.2,2.7,14,0.00,,,0.00,VWS V14.01,2013-01-02 07:06:00,
2013-01-01 23:11:00,47.1,0.4,30.11,SE,139,2.7,3.6,14,0.00,,,0.00,VWS V14.01,2013-01-02 07:11:00,
2013-01-01 23:16:00,47.3,0.5,30.11,SE,142,3.1,3.1,14,0.00,,,0.00,VWS V14.01,2013-01-02 07:16:00,
2013-01-01 23:21:00,47.3,0.5,30.11,East,96,4.0,5.8,14,0.00,,,0.00,VWS V14.01,2013-01-02 07:21:00,
2013-01-01 23:26:00,47.3,0.5,30.11,NNE,30,5.4,5.4,14,0.00,,,0.00,VWS V14.01,2013-01-02 07:26:00,
2013-01-01 23:31:00,47.1,0.4,30.11,East,83,6.3,6.3,14,0.00,,,0.00,VWS V14.01,2013-01-02 07:31:00,
2013-01-01 23:36:00,47.1,0.4,30.11,NE,38,4.9,4.9,14,0.00,,,0.00,VWS V14.01,2013-01-02 07:36:00,
2013-01-01 23:41:00,47.1,0.4,30.11,NE,37,3.1,4.0,14,0.00,,,0.00,VWS V14.01,2013-01-02 07:41:00,
2013-01-01 23:46:00,46.9,-3.0,30.11,ENE,78,2.7,5.4,12,0.00,,,0.00,VWS V14.01,2013-01-02 07:46:00,
2013-01-01 23:51:00,46.6,-3.3,30.11,SE,144,2.2,5.8,12,0.00,,,0.00,VWS V14.01,2013-01-02 07:51:00,
2013-01-01 23:56:00,46.4,-3.4,30.11,NNE,32,7.2,7.2,12,0.00,,,0.00,VWS V14.01,2013-01-02 07:56:00,